sensor_id;sensor_type;location;lat;lon;timestamp;P1;durP1;ratioP1;P2;durP2;ratioP2
10725;SDS011;5414;59.782;16.378;2023-02-15T00:00:22;6.73;;;4.47;;
10725;SDS011;5414;59.782;16.378;2023-02-15T00:02:48;6.50;;;4.77;;
10725;SDS011;5414;59.782;16.378;2023-02-15T00:05:14;7.97;;;5.00;;
10725;SDS011;5414;59.782;16.378;2023-02-15T00:07:40;5.90;;;4.50;;
10725;SDS011;5414;59.782;16.378;2023-02-15T00:10:06;6.87;;;4.80;;
10725;SDS011;5414;59.782;16.378;2023-02-15T00:12:32;6.37;;;4.87;;
10725;SDS011;5414;59.782;16.378;2023-02-15T00:14:58;8.57;;;5.20;;
10725;SDS011;5414;59.782;16.378;2023-02-15T00:17:26;7.80;;;5.23;;
10725;SDS011;5414;59.782;16.378;2023-02-15T00:19:52;5.30;;;4.43;;
10725;SDS011;5414;59.782;16.378;2023-02-15T00:22:18;7.17;;;4.97;;
10725;SDS011;5414;59.782;16.378;2023-02-15T00:24:44;6.20;;;4.57;;
10725;SDS011;5414;59.782;16.378;2023-02-15T00:27:10;7.17;;;5.20;;
10725;SDS011;5414;59.782;16.378;2023-02-15T00:29:37;6.97;;;5.30;;
10725;SDS011;5414;59.782;16.378;2023-02-15T00:32:03;7.40;;;5.20;;
10725;SDS011;5414;59.782;16.378;2023-02-15T00:34:29;7.90;;;5.30;;
10725;SDS011;5414;59.782;16.378;2023-02-15T00:36:55;7.57;;;5.20;;
10725;SDS011;5414;59.782;16.378;2023-02-15T00:39:21;9.80;;;5.40;;
10725;SDS011;5414;59.782;16.378;2023-02-15T00:41:48;9.97;;;5.20;;
10725;SDS011;5414;59.782;16.378;2023-02-15T00:44:15;6.30;;;5.17;;
10725;SDS011;5414;59.782;16.378;2023-02-15T00:46:41;7.57;;;5.07;;
10725;SDS011;5414;59.782;16.378;2023-02-15T00:49:07;7.43;;;5.60;;
10725;SDS011;5414;59.782;16.378;2023-02-15T00:51:33;9.10;;;5.47;;
10725;SDS011;5414;59.782;16.378;2023-02-15T00:53:59;7.60;;;5.80;;
10725;SDS011;5414;59.782;16.378;2023-02-15T00:56:25;8.63;;;5.60;;
10725;SDS011;5414;59.782;16.378;2023-02-15T00:58:53;7.27;;;5.87;;
10725;SDS011;5414;59.782;16.378;2023-02-15T01:01:19;6.90;;;5.27;;
10725;SDS011;5414;59.782;16.378;2023-02-15T01:03:46;7.33;;;5.40;;
10725;SDS011;5414;59.782;16.378;2023-02-15T01:06:12;8.87;;;5.97;;
10725;SDS011;5414;59.782;16.378;2023-02-15T01:08:38;7.53;;;5.90;;
10725;SDS011;5414;59.782;16.378;2023-02-15T01:11:05;9.47;;;6.10;;
10725;SDS011;5414;59.782;16.378;2023-02-15T01:13:32;8.67;;;6.03;;
10725;SDS011;5414;59.782;16.378;2023-02-15T01:15:58;7.23;;;5.97;;
10725;SDS011;5414;59.782;16.378;2023-02-15T01:18:24;10.07;;;5.90;;
10725;SDS011;5414;59.782;16.378;2023-02-15T01:20:51;9.93;;;6.27;;
10725;SDS011;5414;59.782;16.378;2023-02-15T01:23:17;9.07;;;5.80;;
10725;SDS011;5414;59.782;16.378;2023-02-15T01:25:43;8.87;;;6.13;;
10725;SDS011;5414;59.782;16.378;2023-02-15T01:28:09;9.43;;;5.83;;
10725;SDS011;5414;59.782;16.378;2023-02-15T01:30:35;8.07;;;6.00;;
10725;SDS011;5414;59.782;16.378;2023-02-15T01:33:01;7.87;;;5.60;;
10725;SDS011;5414;59.782;16.378;2023-02-15T01:35:28;10.20;;;6.37;;
10725;SDS011;5414;59.782;16.378;2023-02-15T01:37:54;8.30;;;6.27;;
10725;SDS011;5414;59.782;16.378;2023-02-15T01:40:21;9.53;;;7.27;;
10725;SDS011;5414;59.782;16.378;2023-02-15T01:42:49;9.70;;;6.30;;
10725;SDS011;5414;59.782;16.378;2023-02-15T01:53:03;9.33;;;7.07;;
10725;SDS011;5414;59.782;16.378;2023-02-15T01:55:33;11.20;;;6.60;;
10725;SDS011;5414;59.782;16.378;2023-02-15T01:58:00;9.93;;;6.40;;
10725;SDS011;5414;59.782;16.378;2023-02-15T02:00:26;12.33;;;7.50;;
10725;SDS011;5414;59.782;16.378;2023-02-15T02:02:53;12.17;;;7.10;;
10725;SDS011;5414;59.782;16.378;2023-02-15T02:05:20;10.07;;;7.43;;
10725;SDS011;5414;59.782;16.378;2023-02-15T02:07:46;10.93;;;7.60;;
10725;SDS011;5414;59.782;16.378;2023-02-15T02:10:20;12.63;;;7.70;;
10725;SDS011;5414;59.782;16.378;2023-02-15T02:12:47;13.00;;;7.00;;
10725;SDS011;5414;59.782;16.378;2023-02-15T02:15:15;9.53;;;7.70;;
10725;SDS011;5414;59.782;16.378;2023-02-15T02:20:28;10.30;;;6.80;;
10725;SDS011;5414;59.782;16.378;2023-02-15T02:38:14;10.43;;;7.30;;
10725;SDS011;5414;59.782;16.378;2023-02-15T02:41:00;11.20;;;7.63;;
10725;SDS011;5414;59.782;16.378;2023-02-15T02:43:47;12.20;;;8.10;;
10725;SDS011;5414;59.782;16.378;2023-02-15T02:46:22;12.37;;;8.03;;
10725;SDS011;5414;59.782;16.378;2023-02-15T02:48:50;9.97;;;7.47;;
10725;SDS011;5414;59.782;16.378;2023-02-15T02:51:16;9.67;;;7.57;;
10725;SDS011;5414;59.782;16.378;2023-02-15T02:53:47;12.17;;;7.47;;
10725;SDS011;5414;59.782;16.378;2023-02-15T02:58:47;12.30;;;7.83;;
10725;SDS011;5414;59.782;16.378;2023-02-15T03:01:15;11.07;;;7.47;;
10725;SDS011;5414;59.782;16.378;2023-02-15T03:03:44;12.47;;;7.90;;
10725;SDS011;5414;59.782;16.378;2023-02-15T03:06:16;11.90;;;7.70;;
10725;SDS011;5414;59.782;16.378;2023-02-15T03:08:45;13.07;;;8.10;;
10725;SDS011;5414;59.782;16.378;2023-02-15T03:11:13;11.47;;;7.60;;
10725;SDS011;5414;59.782;16.378;2023-02-15T03:13:39;12.10;;;8.43;;
10725;SDS011;5414;59.782;16.378;2023-02-15T03:16:05;12.10;;;8.47;;
10725;SDS011;5414;59.782;16.378;2023-02-15T03:18:55;11.17;;;7.90;;
10725;SDS011;5414;59.782;16.378;2023-02-15T03:21:25;11.17;;;8.23;;
10725;SDS011;5414;59.782;16.378;2023-02-15T03:23:52;12.07;;;8.53;;
10725;SDS011;5414;59.782;16.378;2023-02-15T03:26:20;10.47;;;8.00;;
10725;SDS011;5414;59.782;16.378;2023-02-15T03:28:47;11.97;;;8.33;;
10725;SDS011;5414;59.782;16.378;2023-02-15T03:31:15;13.83;;;8.43;;
10725;SDS011;5414;59.782;16.378;2023-02-15T03:33:44;12.37;;;8.93;;
10725;SDS011;5414;59.782;16.378;2023-02-15T03:38:51;14.53;;;8.87;;
10725;SDS011;5414;59.782;16.378;2023-02-15T03:41:19;12.17;;;8.40;;
10725;SDS011;5414;59.782;16.378;2023-02-15T03:48:42;12.27;;;8.73;;
10725;SDS011;5414;59.782;16.378;2023-02-15T03:51:14;11.70;;;8.10;;
10725;SDS011;5414;59.782;16.378;2023-02-15T03:56:29;10.97;;;7.47;;
10725;SDS011;5414;59.782;16.378;2023-02-15T03:58:55;11.67;;;8.17;;
10725;SDS011;5414;59.782;16.378;2023-02-15T04:01:40;12.10;;;7.97;;
10725;SDS011;5414;59.782;16.378;2023-02-15T04:04:24;11.53;;;8.27;;
10725;SDS011;5414;59.782;16.378;2023-02-15T04:06:50;13.33;;;8.47;;
10725;SDS011;5414;59.782;16.378;2023-02-15T04:09:16;13.60;;;8.23;;
10725;SDS011;5414;59.782;16.378;2023-02-15T04:12:01;10.33;;;7.67;;
10725;SDS011;5414;59.782;16.378;2023-02-15T04:14:27;12.50;;;8.30;;
10725;SDS011;5414;59.782;16.378;2023-02-15T04:17:13;13.77;;;8.00;;
10725;SDS011;5414;59.782;16.378;2023-02-15T04:19:39;11.43;;;7.87;;
10725;SDS011;5414;59.782;16.378;2023-02-15T04:22:23;11.37;;;8.37;;
10725;SDS011;5414;59.782;16.378;2023-02-15T04:25:07;12.97;;;8.70;;
10725;SDS011;5414;59.782;16.378;2023-02-15T04:27:40;11.07;;;8.30;;
10725;SDS011;5414;59.782;16.378;2023-02-15T04:30:07;10.57;;;7.93;;
10725;SDS011;5414;59.782;16.378;2023-02-15T04:32:34;11.67;;;8.43;;
10725;SDS011;5414;59.782;16.378;2023-02-15T04:35:00;13.00;;;8.80;;
10725;SDS011;5414;59.782;16.378;2023-02-15T04:37:26;9.97;;;7.33;;
10725;SDS011;5414;59.782;16.378;2023-02-15T04:39:52;13.73;;;8.33;;
10725;SDS011;5414;59.782;16.378;2023-02-15T04:42:18;13.33;;;8.73;;
10725;SDS011;5414;59.782;16.378;2023-02-15T04:44:44;14.33;;;8.80;;
10725;SDS011;5414;59.782;16.378;2023-02-15T04:47:10;14.10;;;9.00;;
10725;SDS011;5414;59.782;16.378;2023-02-15T04:49:36;13.60;;;9.00;;
10725;SDS011;5414;59.782;16.378;2023-02-15T04:52:02;13.67;;;8.47;;
10725;SDS011;5414;59.782;16.378;2023-02-15T04:54:28;12.53;;;8.50;;
10725;SDS011;5414;59.782;16.378;2023-02-15T04:56:54;12.03;;;8.07;;
10725;SDS011;5414;59.782;16.378;2023-02-15T04:59:20;12.33;;;8.97;;
10725;SDS011;5414;59.782;16.378;2023-02-15T05:01:46;12.87;;;8.73;;
10725;SDS011;5414;59.782;16.378;2023-02-15T05:04:12;11.13;;;7.97;;
10725;SDS011;5414;59.782;16.378;2023-02-15T05:06:38;14.57;;;8.53;;
10725;SDS011;5414;59.782;16.378;2023-02-15T05:09:04;11.43;;;8.27;;
10725;SDS011;5414;59.782;16.378;2023-02-15T05:11:30;13.93;;;8.83;;
10725;SDS011;5414;59.782;16.378;2023-02-15T05:13:57;12.77;;;8.67;;
10725;SDS011;5414;59.782;16.378;2023-02-15T05:16:23;13.67;;;9.23;;
10725;SDS011;5414;59.782;16.378;2023-02-15T05:18:49;12.00;;;8.43;;
10725;SDS011;5414;59.782;16.378;2023-02-15T05:21:15;13.77;;;8.70;;
10725;SDS011;5414;59.782;16.378;2023-02-15T05:23:41;13.30;;;9.03;;
10725;SDS011;5414;59.782;16.378;2023-02-15T05:26:11;13.60;;;9.10;;
10725;SDS011;5414;59.782;16.378;2023-02-15T05:28:56;14.83;;;9.10;;
10725;SDS011;5414;59.782;16.378;2023-02-15T05:31:22;12.73;;;8.67;;
10725;SDS011;5414;59.782;16.378;2023-02-15T05:33:48;11.77;;;8.40;;
10725;SDS011;5414;59.782;16.378;2023-02-15T05:36:14;13.90;;;8.63;;
10725;SDS011;5414;59.782;16.378;2023-02-15T05:38:40;14.17;;;9.43;;
10725;SDS011;5414;59.782;16.378;2023-02-15T05:41:06;14.33;;;9.33;;
10725;SDS011;5414;59.782;16.378;2023-02-15T05:43:33;12.53;;;8.57;;
10725;SDS011;5414;59.782;16.378;2023-02-15T05:45:59;13.97;;;9.00;;
10725;SDS011;5414;59.782;16.378;2023-02-15T05:48:26;13.27;;;9.03;;
10725;SDS011;5414;59.782;16.378;2023-02-15T05:50:59;15.33;;;9.30;;
10725;SDS011;5414;59.782;16.378;2023-02-15T05:53:25;13.17;;;8.97;;
10725;SDS011;5414;59.782;16.378;2023-02-15T05:55:52;11.70;;;8.70;;
10725;SDS011;5414;59.782;16.378;2023-02-15T05:58:19;15.37;;;8.83;;
10725;SDS011;5414;59.782;16.378;2023-02-15T06:00:45;13.30;;;9.23;;
10725;SDS011;5414;59.782;16.378;2023-02-15T06:03:11;14.30;;;9.17;;
10725;SDS011;5414;59.782;16.378;2023-02-15T06:05:37;13.03;;;8.27;;
10725;SDS011;5414;59.782;16.378;2023-02-15T06:08:03;12.67;;;9.30;;
10725;SDS011;5414;59.782;16.378;2023-02-15T06:10:29;13.43;;;8.77;;
10725;SDS011;5414;59.782;16.378;2023-02-15T06:12:55;11.90;;;8.47;;
10725;SDS011;5414;59.782;16.378;2023-02-15T06:15:21;14.90;;;9.40;;
10725;SDS011;5414;59.782;16.378;2023-02-15T06:17:47;15.20;;;8.90;;
10725;SDS011;5414;59.782;16.378;2023-02-15T06:20:13;13.97;;;9.30;;
10725;SDS011;5414;59.782;16.378;2023-02-15T06:22:39;12.53;;;8.70;;
10725;SDS011;5414;59.782;16.378;2023-02-15T06:25:05;14.73;;;9.50;;
10725;SDS011;5414;59.782;16.378;2023-02-15T06:27:34;12.93;;;8.73;;
10725;SDS011;5414;59.782;16.378;2023-02-15T06:30:00;15.43;;;9.50;;
10725;SDS011;5414;59.782;16.378;2023-02-15T06:32:26;16.80;;;9.77;;
10725;SDS011;5414;59.782;16.378;2023-02-15T06:34:52;13.57;;;9.20;;
10725;SDS011;5414;59.782;16.378;2023-02-15T06:37:18;14.73;;;9.27;;
10725;SDS011;5414;59.782;16.378;2023-02-15T06:39:44;14.70;;;8.70;;
10725;SDS011;5414;59.782;16.378;2023-02-15T06:42:10;14.70;;;9.63;;
10725;SDS011;5414;59.782;16.378;2023-02-15T06:44:36;13.43;;;8.57;;
10725;SDS011;5414;59.782;16.378;2023-02-15T06:47:02;13.20;;;8.90;;
10725;SDS011;5414;59.782;16.378;2023-02-15T06:49:28;15.43;;;9.30;;
10725;SDS011;5414;59.782;16.378;2023-02-15T06:51:54;14.90;;;9.50;;
10725;SDS011;5414;59.782;16.378;2023-02-15T06:54:20;14.03;;;9.17;;
10725;SDS011;5414;59.782;16.378;2023-02-15T06:56:46;15.47;;;9.67;;
10725;SDS011;5414;59.782;16.378;2023-02-15T06:59:12;16.23;;;10.17;;
10725;SDS011;5414;59.782;16.378;2023-02-15T07:01:38;16.23;;;9.30;;
10725;SDS011;5414;59.782;16.378;2023-02-15T07:04:04;13.90;;;9.00;;
10725;SDS011;5414;59.782;16.378;2023-02-15T07:06:34;16.87;;;9.77;;
10725;SDS011;5414;59.782;16.378;2023-02-15T07:09:00;14.13;;;8.80;;
10725;SDS011;5414;59.782;16.378;2023-02-15T07:11:27;14.67;;;9.27;;
10725;SDS011;5414;59.782;16.378;2023-02-15T07:14:12;15.87;;;9.00;;
10725;SDS011;5414;59.782;16.378;2023-02-15T07:16:38;15.43;;;9.47;;
10725;SDS011;5414;59.782;16.378;2023-02-15T07:19:04;15.00;;;8.97;;
10725;SDS011;5414;59.782;16.378;2023-02-15T07:21:30;14.57;;;9.13;;
10725;SDS011;5414;59.782;16.378;2023-02-15T07:23:56;15.07;;;9.80;;
10725;SDS011;5414;59.782;16.378;2023-02-15T07:26:23;15.00;;;9.77;;
10725;SDS011;5414;59.782;16.378;2023-02-15T07:28:49;15.67;;;10.00;;
10725;SDS011;5414;59.782;16.378;2023-02-15T07:31:15;17.60;;;9.90;;
10725;SDS011;5414;59.782;16.378;2023-02-15T07:33:41;16.00;;;10.00;;
10725;SDS011;5414;59.782;16.378;2023-02-15T07:36:07;16.50;;;9.80;;
10725;SDS011;5414;59.782;16.378;2023-02-15T07:38:36;15.63;;;9.07;;
10725;SDS011;5414;59.782;16.378;2023-02-15T07:41:05;17.43;;;9.87;;
10725;SDS011;5414;59.782;16.378;2023-02-15T07:43:33;17.77;;;9.90;;
10725;SDS011;5414;59.782;16.378;2023-02-15T07:46:00;16.17;;;9.10;;
10725;SDS011;5414;59.782;16.378;2023-02-15T07:48:26;14.70;;;9.23;;
10725;SDS011;5414;59.782;16.378;2023-02-15T07:50:52;14.63;;;8.53;;
10725;SDS011;5414;59.782;16.378;2023-02-15T07:53:18;15.40;;;10.13;;
10725;SDS011;5414;59.782;16.378;2023-02-15T07:55:44;14.40;;;9.40;;
10725;SDS011;5414;59.782;16.378;2023-02-15T07:58:10;16.00;;;9.83;;
10725;SDS011;5414;59.782;16.378;2023-02-15T08:00:36;15.83;;;9.20;;
10725;SDS011;5414;59.782;16.378;2023-02-15T08:03:24;16.77;;;9.30;;
10725;SDS011;5414;59.782;16.378;2023-02-15T08:05:54;18.10;;;10.10;;
10725;SDS011;5414;59.782;16.378;2023-02-15T08:08:21;15.33;;;9.57;;
10725;SDS011;5414;59.782;16.378;2023-02-15T08:11:00;15.70;;;10.37;;
10725;SDS011;5414;59.782;16.378;2023-02-15T08:13:45;19.80;;;10.47;;
10725;SDS011;5414;59.782;16.378;2023-02-15T08:16:22;18.20;;;10.03;;
10725;SDS011;5414;59.782;16.378;2023-02-15T08:18:49;15.73;;;9.50;;
10725;SDS011;5414;59.782;16.378;2023-02-15T08:21:15;16.60;;;9.93;;
10725;SDS011;5414;59.782;16.378;2023-02-15T08:23:41;17.47;;;10.30;;
10725;SDS011;5414;59.782;16.378;2023-02-15T08:26:07;17.17;;;10.33;;
10725;SDS011;5414;59.782;16.378;2023-02-15T08:28:33;16.07;;;10.03;;
10725;SDS011;5414;59.782;16.378;2023-02-15T08:31:09;19.53;;;10.43;;
10725;SDS011;5414;59.782;16.378;2023-02-15T08:33:36;18.73;;;10.60;;
10725;SDS011;5414;59.782;16.378;2023-02-15T08:36:05;22.83;;;11.40;;
10725;SDS011;5414;59.782;16.378;2023-02-15T08:38:32;18.13;;;10.77;;
10725;SDS011;5414;59.782;16.378;2023-02-15T08:41:08;19.77;;;11.50;;
10725;SDS011;5414;59.782;16.378;2023-02-15T08:43:34;21.60;;;11.97;;
10725;SDS011;5414;59.782;16.378;2023-02-15T08:46:00;19.37;;;11.13;;
10725;SDS011;5414;59.782;16.378;2023-02-15T08:48:26;17.87;;;10.63;;
10725;SDS011;5414;59.782;16.378;2023-02-15T08:50:52;22.97;;;11.97;;
10725;SDS011;5414;59.782;16.378;2023-02-15T08:53:18;17.20;;;10.60;;
10725;SDS011;5414;59.782;16.378;2023-02-15T08:55:46;21.87;;;12.47;;
10725;SDS011;5414;59.782;16.378;2023-02-15T08:58:12;19.17;;;11.63;;
10725;SDS011;5414;59.782;16.378;2023-02-15T09:00:38;18.20;;;10.93;;
10725;SDS011;5414;59.782;16.378;2023-02-15T09:03:04;19.97;;;12.00;;
10725;SDS011;5414;59.782;16.378;2023-02-15T09:05:30;17.83;;;10.90;;
10725;SDS011;5414;59.782;16.378;2023-02-15T09:07:56;19.93;;;11.77;;
10725;SDS011;5414;59.782;16.378;2023-02-15T09:10:22;21.83;;;11.80;;
10725;SDS011;5414;59.782;16.378;2023-02-15T09:12:48;19.90;;;12.00;;
10725;SDS011;5414;59.782;16.378;2023-02-15T09:15:16;21.23;;;12.63;;
10725;SDS011;5414;59.782;16.378;2023-02-15T09:17:42;19.60;;;11.47;;
10725;SDS011;5414;59.782;16.378;2023-02-15T09:20:08;22.67;;;11.83;;
10725;SDS011;5414;59.782;16.378;2023-02-15T09:22:34;22.50;;;12.60;;
10725;SDS011;5414;59.782;16.378;2023-02-15T09:25:00;19.97;;;12.07;;
10725;SDS011;5414;59.782;16.378;2023-02-15T09:27:26;22.77;;;12.53;;
10725;SDS011;5414;59.782;16.378;2023-02-15T09:29:52;25.83;;;13.03;;
10725;SDS011;5414;59.782;16.378;2023-02-15T09:32:18;19.90;;;11.67;;
10725;SDS011;5414;59.782;16.378;2023-02-15T09:34:44;20.77;;;12.20;;
10725;SDS011;5414;59.782;16.378;2023-02-15T09:37:10;23.80;;;12.47;;
10725;SDS011;5414;59.782;16.378;2023-02-15T09:39:37;22.63;;;13.20;;
10725;SDS011;5414;59.782;16.378;2023-02-15T09:52:39;19.20;;;12.10;;
10725;SDS011;5414;59.782;16.378;2023-02-15T10:02:58;21.20;;;12.37;;
10725;SDS011;5414;59.782;16.378;2023-02-15T10:05:37;21.77;;;12.50;;
10725;SDS011;5414;59.782;16.378;2023-02-15T10:18:30;22.37;;;12.37;;
10725;SDS011;5414;59.782;16.378;2023-02-15T10:26:27;21.97;;;13.13;;
10725;SDS011;5414;59.782;16.378;2023-02-15T10:29:37;21.80;;;12.17;;
10725;SDS011;5414;59.782;16.378;2023-02-15T10:34:12;22.47;;;12.57;;
10725;SDS011;5414;59.782;16.378;2023-02-15T10:39:12;20.30;;;12.40;;
10725;SDS011;5414;59.782;16.378;2023-02-15T10:41:49;21.60;;;11.93;;
10725;SDS011;5414;59.782;16.378;2023-02-15T10:54:48;23.33;;;13.63;;
10725;SDS011;5414;59.782;16.378;2023-02-15T10:57:22;22.27;;;12.43;;
10725;SDS011;5414;59.782;16.378;2023-02-15T10:59:55;22.70;;;12.43;;
10725;SDS011;5414;59.782;16.378;2023-02-15T11:07:51;24.57;;;12.80;;
10725;SDS011;5414;59.782;16.378;2023-02-15T11:12:57;20.60;;;11.70;;
10725;SDS011;5414;59.782;16.378;2023-02-15T11:15:34;22.03;;;12.53;;
10725;SDS011;5414;59.782;16.378;2023-02-15T11:21:01;21.07;;;13.10;;
10725;SDS011;5414;59.782;16.378;2023-02-15T11:23:29;17.47;;;11.37;;
10725;SDS011;5414;59.782;16.378;2023-02-15T11:25:59;22.83;;;12.63;;
10725;SDS011;5414;59.782;16.378;2023-02-15T11:29:12;23.43;;;13.50;;
10725;SDS011;5414;59.782;16.378;2023-02-15T11:31:13;20.77;;;12.43;;
10725;SDS011;5414;59.782;16.378;2023-02-15T11:33:41;22.13;;;11.87;;
10725;SDS011;5414;59.782;16.378;2023-02-15T11:36:11;23.07;;;12.83;;
10725;SDS011;5414;59.782;16.378;2023-02-15T11:38:41;20.77;;;12.37;;
10725;SDS011;5414;59.782;16.378;2023-02-15T11:41:13;25.93;;;13.33;;
10725;SDS011;5414;59.782;16.378;2023-02-15T11:43:44;22.97;;;12.30;;
10725;SDS011;5414;59.782;16.378;2023-02-15T11:46:13;23.33;;;12.73;;
10725;SDS011;5414;59.782;16.378;2023-02-15T11:48:40;22.17;;;12.00;;
10725;SDS011;5414;59.782;16.378;2023-02-15T11:51:08;22.93;;;13.20;;
10725;SDS011;5414;59.782;16.378;2023-02-15T11:53:36;25.20;;;13.13;;
10725;SDS011;5414;59.782;16.378;2023-02-15T11:56:03;21.20;;;12.60;;
10725;SDS011;5414;59.782;16.378;2023-02-15T11:58:40;22.20;;;12.67;;
10725;SDS011;5414;59.782;16.378;2023-02-15T12:03:57;22.47;;;12.40;;
10725;SDS011;5414;59.782;16.378;2023-02-15T12:06:27;22.00;;;12.80;;
10725;SDS011;5414;59.782;16.378;2023-02-15T12:09:01;21.53;;;11.17;;
10725;SDS011;5414;59.782;16.378;2023-02-15T12:11:33;22.23;;;12.20;;
10725;SDS011;5414;59.782;16.378;2023-02-15T12:14:04;23.43;;;12.27;;
10725;SDS011;5414;59.782;16.378;2023-02-15T12:16:39;22.40;;;11.40;;
10725;SDS011;5414;59.782;16.378;2023-02-15T12:19:09;20.53;;;12.03;;
10725;SDS011;5414;59.782;16.378;2023-02-15T12:21:39;22.43;;;12.07;;
10725;SDS011;5414;59.782;16.378;2023-02-15T12:24:14;21.90;;;12.00;;
10725;SDS011;5414;59.782;16.378;2023-02-15T12:26:42;22.10;;;12.00;;
10725;SDS011;5414;59.782;16.378;2023-02-15T12:29:15;20.37;;;11.80;;
10725;SDS011;5414;59.782;16.378;2023-02-15T12:31:43;23.00;;;11.70;;
10725;SDS011;5414;59.782;16.378;2023-02-15T12:34:32;21.17;;;11.50;;
10725;SDS011;5414;59.782;16.378;2023-02-15T12:36:58;22.07;;;12.43;;
10725;SDS011;5414;59.782;16.378;2023-02-15T12:39:27;19.87;;;11.80;;
10725;SDS011;5414;59.782;16.378;2023-02-15T12:44:23;20.23;;;11.13;;
10725;SDS011;5414;59.782;16.378;2023-02-15T12:47:01;21.20;;;11.07;;
10725;SDS011;5414;59.782;16.378;2023-02-15T12:49:32;20.63;;;10.50;;
10725;SDS011;5414;59.782;16.378;2023-02-15T12:52:01;24.73;;;12.20;;
10725;SDS011;5414;59.782;16.378;2023-02-15T12:54:40;23.77;;;11.90;;
10725;SDS011;5414;59.782;16.378;2023-02-15T12:59:47;20.87;;;10.93;;
10725;SDS011;5414;59.782;16.378;2023-02-15T13:02:27;20.87;;;11.33;;
10725;SDS011;5414;59.782;16.378;2023-02-15T13:04:54;22.33;;;11.83;;
10725;SDS011;5414;59.782;16.378;2023-02-15T13:07:21;23.30;;;11.57;;
10725;SDS011;5414;59.782;16.378;2023-02-15T13:09:47;21.63;;;11.67;;
10725;SDS011;5414;59.782;16.378;2023-02-15T13:12:23;22.93;;;12.30;;
10725;SDS011;5414;59.782;16.378;2023-02-15T13:14:51;22.93;;;11.07;;
10725;SDS011;5414;59.782;16.378;2023-02-15T13:17:40;19.93;;;11.93;;
10725;SDS011;5414;59.782;16.378;2023-02-15T13:20:18;19.83;;;11.27;;
10725;SDS011;5414;59.782;16.378;2023-02-15T13:22:46;22.20;;;11.80;;
10725;SDS011;5414;59.782;16.378;2023-02-15T13:25:22;21.97;;;11.47;;
10725;SDS011;5414;59.782;16.378;2023-02-15T13:27:53;20.70;;;11.57;;
10725;SDS011;5414;59.782;16.378;2023-02-15T13:30:28;20.83;;;11.60;;
10725;SDS011;5414;59.782;16.378;2023-02-15T13:35:34;20.60;;;11.30;;
10725;SDS011;5414;59.782;16.378;2023-02-15T13:38:06;24.23;;;12.10;;
10725;SDS011;5414;59.782;16.378;2023-02-15T13:40:37;22.97;;;11.60;;
10725;SDS011;5414;59.782;16.378;2023-02-15T13:43:48;20.90;;;10.90;;
10725;SDS011;5414;59.782;16.378;2023-02-15T13:51:25;22.43;;;11.60;;
10725;SDS011;5414;59.782;16.378;2023-02-15T13:54:00;23.07;;;11.47;;
10725;SDS011;5414;59.782;16.378;2023-02-15T13:59:12;20.17;;;11.57;;
10725;SDS011;5414;59.782;16.378;2023-02-15T14:07:33;21.40;;;11.00;;
10725;SDS011;5414;59.782;16.378;2023-02-15T14:13:06;19.90;;;11.13;;
10725;SDS011;5414;59.782;16.378;2023-02-15T14:28:33;22.13;;;11.67;;
10725;SDS011;5414;59.782;16.378;2023-02-15T14:31:03;23.90;;;11.03;;
10725;SDS011;5414;59.782;16.378;2023-02-15T14:33:32;20.60;;;10.63;;
10725;SDS011;5414;59.782;16.378;2023-02-15T14:36:00;21.23;;;11.50;;
10725;SDS011;5414;59.782;16.378;2023-02-15T14:54:54;22.73;;;10.97;;
10725;SDS011;5414;59.782;16.378;2023-02-15T15:04:27;20.83;;;9.87;;
10725;SDS011;5414;59.782;16.378;2023-02-15T15:09:33;19.97;;;10.27;;
10725;SDS011;5414;59.782;16.378;2023-02-15T15:12:14;19.87;;;10.70;;
10725;SDS011;5414;59.782;16.378;2023-02-15T15:14:41;20.30;;;11.23;;
10725;SDS011;5414;59.782;16.378;2023-02-15T15:17:09;19.70;;;11.00;;
10725;SDS011;5414;59.782;16.378;2023-02-15T15:22:18;20.40;;;9.60;;
10725;SDS011;5414;59.782;16.378;2023-02-15T15:24:46;18.73;;;10.30;;
10725;SDS011;5414;59.782;16.378;2023-02-15T15:29:57;18.43;;;10.17;;
10725;SDS011;5414;59.782;16.378;2023-02-15T15:32:24;23.47;;;11.17;;
10725;SDS011;5414;59.782;16.378;2023-02-15T15:50:28;22.73;;;11.30;;
10725;SDS011;5414;59.782;16.378;2023-02-15T15:52:54;20.23;;;10.90;;
10725;SDS011;5414;59.782;16.378;2023-02-15T15:55:22;22.27;;;10.47;;
10725;SDS011;5414;59.782;16.378;2023-02-15T15:57:50;23.67;;;11.20;;
10725;SDS011;5414;59.782;16.378;2023-02-15T16:02:58;22.77;;;11.63;;
10725;SDS011;5414;59.782;16.378;2023-02-15T16:05:24;21.70;;;11.13;;
10725;SDS011;5414;59.782;16.378;2023-02-15T16:07:50;22.73;;;12.23;;
10725;SDS011;5414;59.782;16.378;2023-02-15T16:10:23;21.50;;;11.17;;
10725;SDS011;5414;59.782;16.378;2023-02-15T16:12:49;24.37;;;11.70;;
10725;SDS011;5414;59.782;16.378;2023-02-15T16:15:17;23.90;;;11.57;;
10725;SDS011;5414;59.782;16.378;2023-02-15T16:17:45;22.07;;;11.33;;
10725;SDS011;5414;59.782;16.378;2023-02-15T16:20:20;24.07;;;12.00;;
10725;SDS011;5414;59.782;16.378;2023-02-15T16:22:48;23.03;;;11.73;;
10725;SDS011;5414;59.782;16.378;2023-02-15T16:27:41;22.80;;;11.80;;
10725;SDS011;5414;59.782;16.378;2023-02-15T16:32:47;28.53;;;12.90;;
10725;SDS011;5414;59.782;16.378;2023-02-15T16:35:14;23.43;;;11.50;;
10725;SDS011;5414;59.782;16.378;2023-02-15T16:37:40;22.87;;;12.20;;
10725;SDS011;5414;59.782;16.378;2023-02-15T16:40:13;25.17;;;11.37;;
10725;SDS011;5414;59.782;16.378;2023-02-15T16:42:51;23.27;;;11.50;;
10725;SDS011;5414;59.782;16.378;2023-02-15T16:45:18;27.00;;;12.30;;
10725;SDS011;5414;59.782;16.378;2023-02-15T16:47:46;26.27;;;12.73;;
10725;SDS011;5414;59.782;16.378;2023-02-15T16:50:20;24.23;;;11.90;;
10725;SDS011;5414;59.782;16.378;2023-02-15T16:52:48;26.63;;;12.33;;
10725;SDS011;5414;59.782;16.378;2023-02-15T16:55:21;24.43;;;12.73;;
10725;SDS011;5414;59.782;16.378;2023-02-15T16:57:48;25.33;;;12.93;;
10725;SDS011;5414;59.782;16.378;2023-02-15T17:00:18;23.90;;;12.63;;
10725;SDS011;5414;59.782;16.378;2023-02-15T17:03:05;26.13;;;12.80;;
10725;SDS011;5414;59.782;16.378;2023-02-15T17:05:53;25.03;;;12.50;;
10725;SDS011;5414;59.782;16.378;2023-02-15T17:08:18;24.57;;;12.53;;
10725;SDS011;5414;59.782;16.378;2023-02-15T17:13:29;27.10;;;13.23;;
10725;SDS011;5414;59.782;16.378;2023-02-15T17:18:25;24.30;;;12.87;;
10725;SDS011;5414;59.782;16.378;2023-02-15T17:20:53;23.93;;;12.67;;
10725;SDS011;5414;59.782;16.378;2023-02-15T17:25:52;24.17;;;11.83;;
10725;SDS011;5414;59.782;16.378;2023-02-15T17:28:19;23.70;;;12.70;;
10725;SDS011;5414;59.782;16.378;2023-02-15T17:30:45;23.07;;;12.77;;
10725;SDS011;5414;59.782;16.378;2023-02-15T17:33:23;27.37;;;13.37;;
10725;SDS011;5414;59.782;16.378;2023-02-15T17:38:34;24.67;;;12.87;;
10725;SDS011;5414;59.782;16.378;2023-02-15T17:41:00;24.87;;;12.97;;
10725;SDS011;5414;59.782;16.378;2023-02-15T17:43:26;24.77;;;13.40;;
10725;SDS011;5414;59.782;16.378;2023-02-15T17:45:52;25.07;;;12.33;;
10725;SDS011;5414;59.782;16.378;2023-02-15T17:48:22;27.77;;;13.87;;
10725;SDS011;5414;59.782;16.378;2023-02-15T17:50:49;26.90;;;12.93;;
10725;SDS011;5414;59.782;16.378;2023-02-15T17:53:16;28.63;;;13.50;;
10725;SDS011;5414;59.782;16.378;2023-02-15T17:55:43;27.27;;;13.37;;
10725;SDS011;5414;59.782;16.378;2023-02-15T17:58:13;27.43;;;13.97;;
10725;SDS011;5414;59.782;16.378;2023-02-15T18:00:43;28.30;;;13.90;;
10725;SDS011;5414;59.782;16.378;2023-02-15T18:03:42;26.63;;;13.37;;
10725;SDS011;5414;59.782;16.378;2023-02-15T18:06:27;27.57;;;13.23;;